Time;durP1;ratioP1;P1;durP2;ratioP2;P2;SDS_P1;SDS_P2;PMS_P1;PMS_P2;Temp;Humidity;BMP_temperature;BMP_pressure;BME280_temperature;BME280_humidity;BME280_pressure;Samples;Min_cycle;Max_cycle;Signal;HPM_P1;HPM_P2
2023/12/17 00:02:09;;;;;;;;;;;;;;;;;;6246007;22;19907;-90
2023/12/17 00:04:35;;;;;;;;;;;;;;;;;;6245310;22;20379;-90
2023/12/17 00:07:01;;;;;;;;;;;;;;;;;;6247710;22;19908;-90
2023/12/17 00:09:27;;;;;;;;;;;;;;;;;;6246880;22;19907;-90
2023/12/17 00:11:53;;;;;;;;;;;;;;;;;;6247513;22;19957;-90
2023/12/17 00:14:19;;;;;;;;;;;;;;;;;;6245623;22;19908;-91
2023/12/17 00:16:45;;;;;;;;;;;;;;;;;;6245314;22;19918;-90
2023/12/17 00:19:11;;;;;;;;;;;;;;;;;;6244711;22;20353;-90
2023/12/17 00:21:36;;;;;;;;;;;;;;;;;;6247304;22;19907;-90
2023/12/17 00:24:02;;;;;;;;;;;;;;;;;;6247033;22;19930;-90
2023/12/17 00:26:28;;;;;;;;;;;;;;;;;;6245026;22;19969;-90
2023/12/17 00:28:54;;;;;;;;;;;;;;;;;;6247537;22;19907;-91
2023/12/17 00:31:20;;;;;;;;;;;;;;;;;;6248198;22;20276;-91
2023/12/17 00:33:46;;;;;;;;;;;;;;;;;;6247205;22;20329;-90
2023/12/17 00:36:12;;;;;;;;;;;;;;;;;;6247184;22;19956;-91
2023/12/17 00:38:38;;;;;;;;;;;;;;;;;;6273667;22;19986;-90
2023/12/17 00:41:04;;;;;;;;;;;;;;;;;;6245768;22;19907;-91
2023/12/17 00:43:30;;;;;;;;;;;;;;;;;;6246179;22;19931;-90
2023/12/17 00:45:56;;;;;;;;;;;;;;;;;;6246620;22;19918;-90
2023/12/17 00:48:22;;;;;;;;;;;;;;;;;;6245045;22;19908;-91
2023/12/17 00:50:48;;;;;;;;;;;;;;;;;;6246717;22;19907;-90
2023/12/17 00:53:14;;;;;;;;;;;;;;;;;;6246429;22;19903;-91
2023/12/17 00:55:39;;;;;;;;;;;;;;;;;;6245844;22;19908;-90
2023/12/17 00:58:05;;;;;;;;;;;;;;;;;;6246440;22;20284;-90
2023/12/17 01:00:31;;;;;;;;;;;;;;;;;;6245487;22;19926;-91
2023/12/17 01:02:57;;;;;;;;;;;;;;;;;;6245638;22;19914;-91
2023/12/17 01:05:23;;;;;;;;;;;;;;;;;;6244011;22;19911;-90
2023/12/17 01:07:50;;;;;;;;;;;;;;;;;;6245809;22;20322;-91
2023/12/17 01:10:16;;;;;;;;;;;;;;;;;;6247129;22;20401;-91
2023/12/17 01:12:42;;;;;;;;;;;;;;;;;;6246402;22;19903;-90
2023/12/17 01:15:08;;;;;;;;;;;;;;;;;;6246847;22;19907;-90
2023/12/17 01:17:34;;;;;;;;;;;;;;;;;;6244540;22;20011;-91
2023/12/17 01:20:00;;;;;;;;;;;;;;;;;;6248813;22;20325;-91
2023/12/17 01:22:26;;;;;;;;;;;;;;;;;;6248941;22;19918;-90
2023/12/17 01:24:54;;;;;;;;;;;;;;;;;;6248969;22;20329;-91
2023/12/17 01:27:21;;;;;;;;;;;;;;;;;;6248192;22;19903;-90
2023/12/17 01:29:47;;;;;;;;;;;;;;;;;;6249229;22;19907;-90
2023/12/17 01:32:12;;;;;;;;;;;;;;;;;;6247321;22;19953;-90
2023/12/17 01:34:38;;;;;;;;;;;;;;;;;;6248707;22;19907;-91
2023/12/17 01:37:04;;;;;;;;;;;;;;;;;;6275861;22;19922;-90
2023/12/17 01:39:30;;;;;;;;;;;;;;;;;;6247709;22;19910;-91
2023/12/17 01:41:56;;;;;;;;;;;;;;;;;;6248245;22;19914;-91
2023/12/17 01:44:22;;;;;;;;;;;;;;;;;;6246487;22;19907;-91
2023/12/17 01:46:48;;;;;;;;;;;;;;;;;;6248323;22;19907;-90
2023/12/17 01:49:14;;;;;;;;;;;;;;;;;;6248155;22;19910;-90
2023/12/17 01:51:40;;;;;;;;;;;;;;;;;;6247899;22;20332;-91
2023/12/17 01:54:06;;;;;;;;;;;;;;;;;;6248054;22;20190;-90
2023/12/17 01:56:32;;;;;;;;;;;;;;;;;;6247363;22;20222;-90
2023/12/17 01:58:58;;;;;;;;;;;;;;;;;;6247679;22;19982;-91
2023/12/17 02:01:24;;;;;;;;;;;;;;;;;;6248519;22;19957;-91
2023/12/17 02:03:50;;;;;;;;;;;;;;;;;;6245294;22;19908;-90
2023/12/17 02:06:16;;;;;;;;;;;;;;;;;;6248229;22;19919;-90
2023/12/17 02:08:42;;;;;;;;;;;;;;;;;;6248446;22;19907;-90
2023/12/17 02:11:08;;;;;;;;;;;;;;;;;;6247644;22;19989;-90
2023/12/17 02:13:34;;;;;;;;;;;;;;;;;;6247888;22;19958;-91
2023/12/17 02:15:59;;;;;;;;;;;;;;;;;;6249033;22;19929;-91
2023/12/17 02:18:25;;;;;;;;;;;;;;;;;;6270398;22;19907;-91
2023/12/17 02:20:51;;;;;;;;;;;;;;;;;;6241979;23;19907;-90
2023/12/17 02:23:17;;;;;;;;;;;;;;;;;;6243209;23;19908;-91
2023/12/17 02:25:43;;;;;;;;;;;;;;;;;;6242924;23;19915;-91
2023/12/17 02:28:09;;;;;;;;;;;;;;;;;;6242633;23;19908;-91
2023/12/17 02:30:35;;;;;;;;;;;;;;;;;;6242244;23;19939;-90
2023/12/17 02:33:01;;;;;;;;;;;;;;;;;;6242186;23;20006;-90
2023/12/17 02:35:27;;;;;;;;;;;;;;;;;;6242711;23;20243;-91
2023/12/17 02:37:53;;;;;;;;;;;;;;;;;;6243338;23;19982;-91
2023/12/17 02:40:19;;;;;;;;;;;;;;;;;;6243371;23;20451;-90
2023/12/17 02:42:45;;;;;;;;;;;;;;;;;;6242594;23;19903;-90
2023/12/17 02:45:11;;;;;;;;;;;;;;;;;;6242876;22;19907;-91
2023/12/17 02:47:37;;;;;;;;;;;;;;;;;;6241529;23;20035;-91
2023/12/17 02:50:03;;;;;;;;;;;;;;;;;;6242082;23;19908;-91
2023/12/17 02:52:29;;;;;;;;;;;;;;;;;;6242723;23;19970;-91
2023/12/17 02:54:54;;;;;;;;;;;;;;;;;;6243807;23;19930;-91
2023/12/17 02:57:24;;;;;;;;;;;;;;;;;;6242148;23;19932;-91
2023/12/17 02:59:50;;;;;;;;;;;;;;;;;;6242581;23;20374;-91
2023/12/17 03:02:16;;;;;;;;;;;;;;;;;;6240415;23;19908;-91
2023/12/17 03:04:42;;;;;;;;;;;;;;;;;;6240746;23;19923;-91
2023/12/17 03:07:08;;;;;;;;;;;;;;;;;;6242770;23;20062;-91
2023/12/17 03:09:34;;;;;;;;;;;;;;;;;;6242454;23;19914;-91
2023/12/17 03:12:00;;;;;;;;;;;;;;;;;;6241684;23;20287;-91
2023/12/17 03:14:26;;;;;;;;;;;;;;;;;;6243063;23;19915;-91
2023/12/17 03:16:52;;;;;;;;;;;;;;;;;;6241601;23;19912;-90
2023/12/17 03:19:18;;;;;;;;;;;;;;;;;;6241863;23;19961;-91
2023/12/17 03:21:44;;;;;;;;;;;;;;;;;;6241874;23;19911;-91
2023/12/17 03:24:10;;;;;;;;;;;;;;;;;;6243608;23;20412;-92
2023/12/17 03:26:35;;;;;;;;;;;;;;;;;;6242216;23;19919;-91
2023/12/17 03:29:02;;;;;;;;;;;;;;;;;;6241910;23;20220;-91
2023/12/17 03:31:28;;;;;;;;;;;;;;;;;;6242277;23;20396;-90
2023/12/17 03:33:54;;;;;;;;;;;;;;;;;;6241168;23;19907;-91
2023/12/17 03:36:20;;;;;;;;;;;;;;;;;;6241818;23;19908;-91
2023/12/17 03:38:46;;;;;;;;;;;;;;;;;;6242902;23;19997;-91
2023/12/17 03:41:12;;;;;;;;;;;;;;;;;;6242738;23;19927;-90
2023/12/17 03:43:38;;;;;;;;;;;;;;;;;;6242555;22;19908;-91
2023/12/17 03:46:03;;;;;;;;;;;;;;;;;;6242423;23;19963;-91
2023/12/17 03:48:29;;;;;;;;;;;;;;;;;;6241452;23;19934;-90
2023/12/17 03:50:55;;;;;;;;;;;;;;;;;;6241968;23;19930;-91
2023/12/17 03:53:21;;;;;;;;;;;;;;;;;;6242015;23;19904;-90
2023/12/17 03:55:47;;;;;;;;;;;;;;;;;;6243417;23;19903;-91
2023/12/17 03:58:13;;;;;;;;;;;;;;;;;;6242554;23;20339;-90
2023/12/17 04:00:39;;;;;;;;;;;;;;;;;;6242096;23;19931;-90
2023/12/17 04:03:05;;;;;;;;;;;;;;;;;;6241149;23;19911;-90
2023/12/17 04:05:31;;;;;;;;;;;;;;;;;;6240576;23;19939;-91
2023/12/17 04:07:57;;;;;;;;;;;;;;;;;;6242135;23;19908;-91
2023/12/17 04:10:23;;;;;;;;;;;;;;;;;;6242607;23;20302;-90
2023/12/17 04:12:49;;;;;;;;;;;;;;;;;;6241790;23;20193;-90
2023/12/17 04:15:15;;;;;;;;;;;;;;;;;;6242362;23;20223;-91
2023/12/17 04:17:41;;;;;;;;;;;;;;;;;;6240493;23;19904;-91
2023/12/17 04:20:06;;;;;;;;;;;;;;;;;;6241785;23;19916;-91
2023/12/17 04:22:32;;;;;;;;;;;;;;;;;;6242097;22;19911;-91
2023/12/17 04:24:58;;;;;;;;;;;;;;;;;;6240231;22;19908;-90
2023/12/17 04:27:24;;;;;;;;;;;;;;;;;;6240573;22;19904;-90
2023/12/17 04:29:50;;;;;;;;;;;;;;;;;;6242942;22;20353;-91
2023/12/17 04:32:16;;;;;;;;;;;;;;;;;;6239696;22;20439;-91
2023/12/17 04:34:42;;;;;;;;;;;;;;;;;;6242152;22;20322;-91
2023/12/17 04:37:08;;;;;;;;;;;;;;;;;;6243143;22;20245;-91
2023/12/17 04:39:34;;;;;;;;;;;;;;;;;;6241655;22;19903;-91
2023/12/17 04:42:00;;;;;;;;;;;;;;;;;;6241279;22;19912;-90
2023/12/17 04:44:26;;;;;;;;;;;;;;;;;;6241272;22;19913;-91
2023/12/17 04:46:52;;;;;;;;;;;;;;;;;;6241805;22;20389;-91
2023/12/17 04:49:17;;;;;;;;;;;;;;;;;;6241793;22;20341;-91
2023/12/17 04:51:44;;;;;;;;;;;;;;;;;;6241567;22;19953;-91
2023/12/17 04:54:10;;;;;;;;;;;;;;;;;;6240901;22;19950;-91
2023/12/17 04:56:36;;;;;;;;;;;;;;;;;;6242398;22;20284;-91
2023/12/17 04:59:02;;;;;;;;;;;;;;;;;;6241844;22;19904;-91
2023/12/17 05:01:28;;;;;;;;;;;;;;;;;;6242092;22;19953;-91
2023/12/17 05:03:53;;;;;;;;;;;;;;;;;;6239266;22;19903;-91
2023/12/17 05:06:19;;;;;;;;;;;;;;;;;;6240767;22;19918;-90
2023/12/17 05:08:45;;;;;;;;;;;;;;;;;;6241226;22;20241;-91
2023/12/17 05:11:11;;;;;;;;;;;;;;;;;;6243289;22;20470;-91
2023/12/17 05:13:37;;;;;;;;;;;;;;;;;;6240750;22;19986;-90
2023/12/17 05:16:03;;;;;;;;;;;;;;;;;;6242377;22;19907;-91
2023/12/17 05:18:29;;;;;;;;;;;;;;;;;;6240878;22;19907;-90
2023/12/17 05:20:55;;;;;;;;;;;;;;;;;;6217100;23;19981;-90
2023/12/17 05:23:21;;;;;;;;;;;;;;;;;;6215841;23;20318;-90
2023/12/17 05:25:46;;;;;;;;;;;;;;;;;;6217594;23;19915;-91
2023/12/17 05:28:12;;;;;;;;;;;;;;;;;;6215615;23;19915;-91
2023/12/17 05:30:38;;;;;;;;;;;;;;;;;;6216324;23;19904;-91
2023/12/17 05:33:04;;;;;;;;;;;;;;;;;;6215665;23;19907;-91
2023/12/17 05:35:30;;;;;;;;;;;;;;;;;;6215782;23;19911;-91
2023/12/17 05:37:56;;;;;;;;;;;;;;;;;;6216352;23;19911;-91
2023/12/17 05:40:22;;;;;;;;;;;;;;;;;;6215961;23;19903;-91
2023/12/17 05:42:48;;;;;;;;;;;;;;;;;;6216066;23;19927;-91
2023/12/17 05:45:14;;;;;;;;;;;;;;;;;;6215463;23;20317;-91
2023/12/17 05:47:40;;;;;;;;;;;;;;;;;;6214912;23;19915;-91
2023/12/17 05:50:07;;;;;;;;;;;;;;;;;;6215373;23;19912;-91
2023/12/17 05:52:33;;;;;;;;;;;;;;;;;;6216268;23;20333;-91
2023/12/17 05:54:59;;;;;;;;;;;;;;;;;;6216091;23;19903;-91
2023/12/17 05:57:25;;;;;;;;;;;;;;;;;;6241629;23;19973;-90
2023/12/17 05:59:51;;;;;;;;;;;;;;;;;;6217130;23;20388;-90
2023/12/17 06:02:17;;;;;;;;;;;;;;;;;;6214719;23;19914;-90
2023/12/17 06:04:43;;;;;;;;;;;;;;;;;;6217499;23;19907;-90
2023/12/17 06:07:09;;;;;;;;;;;;;;;;;;6217656;23;19911;-91
2023/12/17 06:09:34;;;;;;;;;;;;;;;;;;6219938;23;19949;-91
2023/12/17 06:12:00;;;;;;;;;;;;;;;;;;6220193;23;19928;-90
2023/12/17 06:14:28;;;;;;;;;;;;;;;;;;6221072;23;19990;-90
2023/12/17 06:16:54;;;;;;;;;;;;;;;;;;6219528;23;19935;-91
2023/12/17 06:19:19;;;;;;;;;;;;;;;;;;6224069;23;19927;-90
2023/12/17 06:21:45;;;;;;;;;;;;;;;;;;6244628;23;20211;-90
2023/12/17 06:24:11;;;;;;;;;;;;;;;;;;6245274;23;19978;-90
2023/12/17 06:26:37;;;;;;;;;;;;;;;;;;6242777;23;20258;-91
2023/12/17 06:29:03;;;;;;;;;;;;;;;;;;6243773;23;19904;-90
2023/12/17 06:31:29;;;;;;;;;;;;;;;;;;6243888;23;20349;-90
2023/12/17 06:33:55;;;;;;;;;;;;;;;;;;6241004;23;19908;-91
2023/12/17 06:36:21;;;;;;;;;;;;;;;;;;6243129;23;19903;-90
2023/12/17 06:38:47;;;;;;;;;;;;;;;;;;6244257;23;19915;-90
2023/12/17 06:41:13;;;;;;;;;;;;;;;;;;6244893;23;19904;-91
2023/12/17 06:43:39;;;;;;;;;;;;;;;;;;6243379;22;20277;-91
2023/12/17 06:46:06;;;;;;;;;;;;;;;;;;6242721;23;19911;-90
2023/12/17 06:48:32;;;;;;;;;;;;;;;;;;6241488;23;19904;-91
2023/12/17 06:50:58;;;;;;;;;;;;;;;;;;6243218;23;19915;-91
2023/12/17 06:53:24;;;;;;;;;;;;;;;;;;6243572;23;19908;-91
2023/12/17 06:55:50;;;;;;;;;;;;;;;;;;6242205;23;19958;-91
2023/12/17 06:58:16;;;;;;;;;;;;;;;;;;6242711;23;19980;-91
2023/12/17 07:00:42;;;;;;;;;;;;;;;;;;6243542;23;19939;-90
2023/12/17 07:03:08;;;;;;;;;;;;;;;;;;6242939;23;19939;-91
2023/12/17 07:05:34;;;;;;;;;;;;;;;;;;6240875;23;19982;-91
2023/12/17 07:08:00;;;;;;;;;;;;;;;;;;6242380;23;20326;-91
2023/12/17 07:10:26;;;;;;;;;;;;;;;;;;6241571;23;20034;-91
2023/12/17 07:12:52;;;;;;;;;;;;;;;;;;6241609;23;19907;-91
2023/12/17 07:15:18;;;;;;;;;;;;;;;;;;6240859;23;19942;-90
2023/12/17 07:17:44;;;;;;;;;;;;;;;;;;6241602;23;19931;-91
2023/12/17 07:20:10;;;;;;;;;;;;;;;;;;6242273;23;19922;-90
2023/12/17 07:22:36;;;;;;;;;;;;;;;;;;6242835;23;20326;-91
2023/12/17 07:25:02;;;;;;;;;;;;;;;;;;6242558;23;19914;-90
2023/12/17 07:27:28;;;;;;;;;;;;;;;;;;6241007;23;19907;-91
2023/12/17 07:29:54;;;;;;;;;;;;;;;;;;6242136;23;19969;-90
2023/12/17 07:32:20;;;;;;;;;;;;;;;;;;6240840;23;19926;-90
2023/12/17 07:34:46;;;;;;;;;;;;;;;;;;6241713;23;19903;-91
2023/12/17 07:37:12;;;;;;;;;;;;;;;;;;6241777;23;19954;-90
2023/12/17 07:39:37;;;;;;;;;;;;;;;;;;6242572;23;19929;-91
2023/12/17 07:42:03;;;;;;;;;;;;;;;;;;6241305;23;19907;-90
2023/12/17 07:44:31;;;;;;;;;;;;;;;;;;6217122;23;22068;-90
2023/12/17 07:46:57;;;;;;;;;;;;;;;;;;6243411;23;19907;-90
2023/12/17 07:49:23;;;;;;;;;;;;;;;;;;6240711;23;20281;-90
2023/12/17 07:51:49;;;;;;;;;;;;;;;;;;6242301;23;19908;-90
2023/12/17 07:54:15;;;;;;;;;;;;;;;;;;6242487;23;19980;-91
2023/12/17 07:56:41;;;;;;;;;;;;;;;;;;6242422;23;19959;-90
2023/12/17 07:59:07;;;;;;;;;;;;;;;;;;6242180;23;19907;-91
2023/12/17 08:01:34;;;;;;;;;;;;;;;;;;6242734;23;20277;-90
2023/12/17 08:04:00;;;;;;;;;;;;;;;;;;6239271;23;19911;-90
2023/12/17 08:06:25;;;;;;;;;;;;;;;;;;6242198;23;19937;-90
2023/12/17 08:08:51;;;;;;;;;;;;;;;;;;6241434;23;20397;-90
2023/12/17 08:11:17;;;;;;;;;;;;;;;;;;6243247;23;19953;-90
2023/12/17 08:13:43;;;;;;;;;;;;;;;;;;6243048;23;19998;-91
2023/12/17 08:16:09;;;;;;;;;;;;;;;;;;6242739;23;19908;-90
2023/12/17 08:18:35;;;;;;;;;;;;;;;;;;6240932;22;19912;-90
2023/12/17 08:21:02;;;;;;;;;;;;;;;;;;6242269;23;19908;-91
2023/12/17 08:23:28;;;;;;;;;;;;;;;;;;6240406;23;19938;-91
2023/12/17 08:25:54;;;;;;;;;;;;;;;;;;6242052;23;20349;-91
2023/12/17 08:28:20;;;;;;;;;;;;;;;;;;6241265;23;20265;-91
2023/12/17 08:30:46;;;;;;;;;;;;;;;;;;6241812;23;19920;-91
2023/12/17 08:33:12;;;;;;;;;;;;;;;;;;6240712;23;19903;-91
2023/12/17 08:35:38;;;;;;;;;;;;;;;;;;6241391;23;19908;-91
2023/12/17 08:38:06;;;;;;;;;;;;;;;;;;6241573;23;19970;-91
2023/12/17 08:40:31;;;;;;;;;;;;;;;;;;6242155;23;19904;-91
2023/12/17 08:42:57;;;;;;;;;;;;;;;;;;6240516;22;19926;-91
2023/12/17 08:45:23;;;;;;;;;;;;;;;;;;6244371;23;19912;-90
2023/12/17 08:47:49;;;;;;;;;;;;;;;;;;6241170;23;19907;-91
2023/12/17 08:50:15;;;;;;;;;;;;;;;;;;6243186;23;19904;-90
2023/12/17 08:52:41;;;;;;;;;;;;;;;;;;6241327;23;19908;-91
2023/12/17 08:55:07;;;;;;;;;;;;;;;;;;6243114;23;19912;-91
2023/12/17 08:57:33;;;;;;;;;;;;;;;;;;6239165;23;19926;-91
2023/12/17 08:59:59;;;;;;;;;;;;;;;;;;6243194;23;19903;-90
2023/12/17 09:02:25;;;;;;;;;;;;;;;;;;6242088;23;19907;-91
2023/12/17 09:04:52;;;;;;;;;;;;;;;;;;6241841;23;19913;-91
2023/12/17 09:07:18;;;;;;;;;;;;;;;;;;6241276;23;19911;-91
2023/12/17 09:09:44;;;;;;;;;;;;;;;;;;6244100;23;19953;-90
2023/12/17 09:12:10;;;;;;;;;;;;;;;;;;6242726;23;19923;-91
2023/12/17 09:14:36;;;;;;;;;;;;;;;;;;6244274;23;20030;-91
2023/12/17 09:17:02;;;;;;;;;;;;;;;;;;6243141;23;19995;-90
2023/12/17 09:19:28;;;;;;;;;;;;;;;;;;6243947;23;19915;-91
2023/12/17 09:21:54;;;;;;;;;;;;;;;;;;6243787;23;19904;-90
2023/12/17 09:24:20;;;;;;;;;;;;;;;;;;6244198;23;19978;-91
2023/12/17 09:26:46;;;;;;;;;;;;;;;;;;6242967;23;19974;-90
2023/12/17 09:29:11;;;;;;;;;;;;;;;;;;6244669;23;19986;-90
2023/12/17 09:31:39;;;;;;;;;;;;;;;;;;6243398;23;19903;-91
2023/12/17 09:34:05;;;;;;;;;;;;;;;;;;6241957;23;20390;-91
2023/12/17 09:36:31;;;;;;;;;;;;;;;;;;6242390;23;19907;-91
2023/12/17 09:38:57;;;;;;;;;;;;;;;;;;6244040;23;19912;-90
2023/12/17 09:41:23;;;;;;;;;;;;;;;;;;6245594;23;20356;-90
2023/12/17 09:43:49;;;;;;;;;;;;;;;;;;6244585;22;19982;-91
2023/12/17 09:46:15;;;;;;;;;;;;;;;;;;6246340;23;19988;-90
2023/12/17 09:48:41;;;;;;;;;;;;;;;;;;6244962;23;20262;-90
2023/12/17 09:51:07;;;;;;;;;;;;;;;;;;6246632;23;19914;-91
2023/12/17 09:53:33;;;;;;;;;;;;;;;;;;6245576;23;19903;-91
2023/12/17 09:55:59;;;;;;;;;;;;;;;;;;6245479;23;19918;-90
2023/12/17 09:58:26;;;;;;;;;;;;;;;;;;6244083;23;19904;-91
2023/12/17 10:00:52;;;;;;;;;;;;;;;;;;6246895;23;19908;-91
2023/12/17 10:03:18;;;;;;;;;;;;;;;;;;6243807;23;19947;-90
2023/12/17 10:05:44;;;;;;;;;;;;;;;;;;6243041;23;20377;-91
2023/12/17 10:08:10;;;;;;;;;;;;;;;;;;6244644;23;19911;-91
2023/12/17 10:10:36;;;;;;;;;;;;;;;;;;6246158;23;20322;-91
2023/12/17 10:13:03;;;;;;;;;;;;;;;;;;6245152;23;19981;-90
2023/12/17 10:15:28;;;;;;;;;;;;;;;;;;6245481;23;20289;-91
2023/12/17 10:17:54;;;;;;;;;;;;;;;;;;6244065;23;19914;-91
2023/12/17 10:20:20;;;;;;;;;;;;;;;;;;6245861;23;19973;-92
2023/12/17 10:22:46;;;;;;;;;;;;;;;;;;6245417;23;20334;-91
2023/12/17 10:25:12;;;;;;;;;;;;;;;;;;6245392;23;19904;-91
2023/12/17 10:27:39;;;;;;;;;;;;;;;;;;6244608;23;19930;-91
2023/12/17 10:30:06;;;;;;;;;;;;;;;;;;6245620;23;20219;-90
2023/12/17 10:32:32;;;;;;;;;;;;;;;;;;6243468;23;19908;-91
2023/12/17 10:34:58;;;;;;;;;;;;;;;;;;6244766;23;20375;-91
2023/12/17 10:37:24;;;;;;;;;;;;;;;;;;6243208;23;20054;-91
2023/12/17 10:39:50;;;;;;;;;;;;;;;;;;6243667;23;20022;-91
2023/12/17 10:42:16;;;;;;;;;;;;;;;;;;6244654;23;20322;-91
2023/12/17 10:44:41;;;;;;;;;;;;;;;;;;6247163;22;19903;-90
2023/12/17 10:47:07;;;;;;;;;;;;;;;;;;6244373;23;19911;-91
2023/12/17 10:49:33;;;;;;;;;;;;;;;;;;6244705;23;19908;-91
2023/12/17 10:52:00;;;;;;;;;;;;;;;;;;6245734;23;19904;-91
2023/12/17 10:54:26;;;;;;;;;;;;;;;;;;6245822;23;20322;-91
2023/12/17 10:56:52;;;;;;;;;;;;;;;;;;6245753;23;19955;-91
2023/12/17 10:59:17;;;;;;;;;;;;;;;;;;6246803;23;19915;-91
2023/12/17 11:01:44;;;;;;;;;;;;;;;;;;6245607;23;19914;-91
2023/12/17 11:04:10;;;;;;;;;;;;;;;;;;6244982;23;20322;-91
2023/12/17 11:06:36;;;;;;;;;;;;;;;;;;6246735;23;19915;-91
2023/12/17 11:09:02;;;;;;;;;;;;;;;;;;6245505;23;19930;-91
2023/12/17 11:11:32;;;;;;;;;;;;;;;;;;6246253;23;19954;-91
2023/12/17 11:13:58;;;;;;;;;;;;;;;;;;6244882;23;19938;-91
2023/12/17 11:16:24;;;;;;;;;;;;;;;;;;6244649;23;19908;-91
2023/12/17 11:18:50;;;;;;;;;;;;;;;;;;6243167;22;19903;-91
2023/12/17 11:21:16;;;;;;;;;;;;;;;;;;6244600;23;20250;-90
2023/12/17 11:23:42;;;;;;;;;;;;;;;;;;6246352;23;20314;-91
2023/12/17 11:26:08;;;;;;;;;;;;;;;;;;6245897;23;19935;-91
2023/12/17 11:28:34;;;;;;;;;;;;;;;;;;6244688;23;20218;-90
2023/12/17 11:31:00;;;;;;;;;;;;;;;;;;6246095;23;19958;-91
2023/12/17 11:33:26;;;;;;;;;;;;;;;;;;6245022;23;19950;-91
2023/12/17 11:35:52;;;;;;;;;;;;;;;;;;6247085;23;19915;-91
2023/12/17 11:38:20;;;;;;;;;;;;;;;;;;6245681;23;19907;-91
2023/12/17 11:40:46;;;;;;;;;;;;;;;;;;6244961;23;19904;-91
2023/12/17 11:43:11;;;;;;;;;;;;;;;;;;6244343;22;19982;-91
2023/12/17 11:45:37;;;;;;;;;;;;;;;;;;6244477;23;19998;-91
2023/12/17 11:48:03;;;;;;;;;;;;;;;;;;6244795;23;20037;-92
2023/12/17 11:50:29;;;;;;;;;;;;;;;;;;6244377;23;19904;-91
2023/12/17 11:52:55;;;;;;;;;;;;;;;;;;6245128;23;19913;-91
2023/12/17 11:55:21;;;;;;;;;;;;;;;;;;6242410;23;20260;-90
2023/12/17 11:57:47;;;;;;;;;;;;;;;;;;6244076;23;19934;-90
2023/12/17 12:00:13;;;;;;;;;;;;;;;;;;6242372;23;19904;-90
2023/12/17 12:02:39;;;;;;;;;;;;;;;;;;6241885;23;19915;-91
2023/12/17 12:05:05;;;;;;;;;;;;;;;;;;6242576;23;20301;-91
2023/12/17 12:07:31;;;;;;;;;;;;;;;;;;6244599;23;19914;-91
2023/12/17 12:09:57;;;;;;;;;;;;;;;;;;6244154;23;20521;-90
2023/12/17 12:12:26;;;;;;;;;;;;;;;;;;6242990;23;19956;-91
2023/12/17 12:14:52;;;;;;;;;;;;;;;;;;6244869;23;19907;-91
2023/12/17 12:17:18;;;;;;;;;;;;;;;;;;6241161;23;20433;-91
2023/12/17 12:19:44;;;;;;;;;;;;;;;;;;6249079;22;20322;-91
2023/12/17 12:22:10;;;;;;;;;;;;;;;;;;6247902;22;19903;-91
2023/12/17 12:24:36;;;;;;;;;;;;;;;;;;6277064;22;19908;-91
2023/12/17 12:27:02;;;;;;;;;;;;;;;;;;6248352;22;19907;-91
2023/12/17 12:29:28;;;;;;;;;;;;;;;;;;6249767;22;19911;-91
2023/12/17 12:31:54;;;;;;;;;;;;;;;;;;6248367;22;19914;-91
2023/12/17 12:34:20;;;;;;;;;;;;;;;;;;6248104;22;19907;-91
2023/12/17 12:36:46;;;;;;;;;;;;;;;;;;6249233;22;19903;-91
2023/12/17 12:39:12;;;;;;;;;;;;;;;;;;6275358;22;19907;-91
2023/12/17 12:41:38;;;;;;;;;;;;;;;;;;6248203;22;19907;-90
2023/12/17 12:44:04;;;;;;;;;;;;;;;;;;6247664;22;19961;-90
2023/12/17 12:46:30;;;;;;;;;;;;;;;;;;6249713;22;19907;-91
2023/12/17 12:48:56;;;;;;;;;;;;;;;;;;6248712;22;20236;-91
2023/12/17 12:51:22;;;;;;;;;;;;;;;;;;6250021;22;20331;-90
2023/12/17 12:53:48;;;;;;;;;;;;;;;;;;6249439;22;19942;-91
2023/12/17 12:56:14;;;;;;;;;;;;;;;;;;6250083;22;19903;-91
2023/12/17 12:58:40;;;;;;;;;;;;;;;;;;6247812;22;19905;-91
2023/12/17 13:01:06;;;;;;;;;;;;;;;;;;6249502;22;20345;-91
2023/12/17 13:03:32;;;;;;;;;;;;;;;;;;6246186;22;19907;-91
2023/12/17 13:05:58;;;;;;;;;;;;;;;;;;6248243;22;19911;-91
2023/12/17 13:08:24;;;;;;;;;;;;;;;;;;6247284;22;19953;-91
2023/12/17 13:10:52;;;;;;;;;;;;;;;;;;6247832;22;19931;-91
2023/12/17 13:13:18;;;;;;;;;;;;;;;;;;6248006;22;20325;-91
2023/12/17 13:15:44;;;;;;;;;;;;;;;;;;6250543;22;19907;-91
2023/12/17 13:18:10;;;;;;;;;;;;;;;;;;6250755;22;19930;-91
2023/12/17 13:20:36;;;;;;;;;;;;;;;;;;6249679;22;20349;-91
2023/12/17 13:23:03;;;;;;;;;;;;;;;;;;6250025;22;19910;-91
2023/12/17 13:25:30;;;;;;;;;;;;;;;;;;6277320;22;19942;-90
2023/12/17 13:27:56;;;;;;;;;;;;;;;;;;6248948;22;20513;-91
2023/12/17 13:30:25;;;;;;;;;;;;;;;;;;6249861;22;19903;-91
2023/12/17 13:32:51;;;;;;;;;;;;;;;;;;6248239;22;19903;-91
2023/12/17 13:35:17;;;;;;;;;;;;;;;;;;6250294;22;19911;-91
2023/12/17 13:37:43;;;;;;;;;;;;;;;;;;6248478;22;20299;-91
2023/12/17 13:40:09;;;;;;;;;;;;;;;;;;6249784;22;19964;-91
2023/12/17 13:42:35;;;;;;;;;;;;;;;;;;6245789;22;19938;-91
2023/12/17 13:45:02;;;;;;;;;;;;;;;;;;6248273;22;19907;-91
2023/12/17 13:47:28;;;;;;;;;;;;;;;;;;6247586;22;19916;-91
2023/12/17 13:49:53;;;;;;;;;;;;;;;;;;6250032;22;20543;-91
2023/12/17 13:52:19;;;;;;;;;;;;;;;;;;6249310;22;20317;-91
2023/12/17 13:54:45;;;;;;;;;;;;;;;;;;6250518;22;19907;-92
2023/12/17 13:57:14;;;;;;;;;;;;;;;;;;6247821;22;19915;-91
2023/12/17 13:59:40;;;;;;;;;;;;;;;;;;6250466;22;19910;-91
2023/12/17 14:02:07;;;;;;;;;;;;;;;;;;6246159;22;19907;-89
2023/12/17 14:04:33;;;;;;;;;;;;;;;;;;6275020;22;19910;-89
2023/12/17 14:06:59;;;;;;;;;;;;;;;;;;6246598;22;20314;-89
2023/12/17 14:09:25;;;;;;;;;;;;;;;;;;6247626;22;19957;-89
2023/12/17 14:11:50;;;;;;;;;;;;;;;;;;6248167;22;19965;-89
2023/12/17 14:14:17;;;;;;;;;;;;;;;;;;6275280;22;19907;-88
2023/12/17 14:16:42;;;;;;;;;;;;;;;;;;6245203;22;19915;-88
2023/12/17 14:19:10;;;;;;;;;;;;;;;;;;6236750;22;20002;-89
2023/12/17 14:21:36;;;;;;;;;;;;;;;;;;6244867;22;19907;-89
2023/12/17 14:24:02;;;;;;;;;;;;;;;;;;6247756;22;19914;-89
2023/12/17 14:26:28;;;;;;;;;;;;;;;;;;6247089;22;20381;-87
2023/12/17 14:28:54;;;;;;;;;;;;;;;;;;6247751;22;20006;-88
2023/12/17 14:31:20;;;;;;;;;;;;;;;;;;6234791;22;19910;-89
2023/12/17 14:33:46;;;;;;;;;;;;;;;;;;6244299;22;19907;-88
2023/12/17 14:36:13;;;;;;;;;;;;;;;;;;6234349;22;19938;-88
2023/12/17 14:38:39;;;;;;;;;;;;;;;;;;6247187;22;19911;-89
2023/12/17 14:41:05;;;;;;;;;;;;;;;;;;6246369;22;19982;-88
2023/12/17 14:43:31;;;;;;;;;;;;;;;;;;6245739;22;19915;-88
2023/12/17 14:45:57;;;;;;;;;;;;;;;;;;6246308;22;19915;-88
2023/12/17 14:48:22;;;;;;;;;;;;;;;;;;6272766;22;19903;-88
2023/12/17 14:50:48;;;;;;;;;;;;;;;;;;6244634;22;19915;-88
2023/12/17 14:53:14;;;;;;;;;;;;;;;;;;6245557;22;19914;-89
2023/12/17 14:55:40;;;;;;;;;;;;;;;;;;6244565;22;19914;-89
2023/12/17 14:58:07;;;;;;;;;;;;;;;;;;6246289;22;20318;-89
2023/12/17 15:00:33;;;;;;;;;;;;;;;;;;6244149;22;19914;-89
2023/12/17 15:02:59;;;;;;;;;;;;;;;;;;6247926;22;20396;-89
2023/12/17 15:05:25;;;;;;;;;;;;;;;;;;6245972;22;20240;-89
2023/12/17 15:07:51;;;;;;;;;;;;;;;;;;6248281;22;19961;-88
2023/12/17 15:10:17;;;;;;;;;;;;;;;;;;6273470;22;19911;-89
2023/12/17 15:12:43;;;;;;;;;;;;;;;;;;6274098;22;20326;-89
2023/12/17 15:15:09;;;;;;;;;;;;;;;;;;6246570;22;19960;-88
2023/12/17 15:17:35;;;;;;;;;;;;;;;;;;6245092;22;20171;-88
2023/12/17 15:20:01;;;;;;;;;;;;;;;;;;6246817;22;20029;-89
2023/12/17 15:22:27;;;;;;;;;;;;;;;;;;6244987;22;19907;-89
2023/12/17 15:24:53;;;;;;;;;;;;;;;;;;6245149;22;19993;-89
2023/12/17 15:27:19;;;;;;;;;;;;;;;;;;6243573;22;19954;-89
2023/12/17 15:29:45;;;;;;;;;;;;;;;;;;6243371;22;20407;-88
2023/12/17 15:32:11;;;;;;;;;;;;;;;;;;6245527;22;19907;-89
2023/12/17 15:34:37;;;;;;;;;;;;;;;;;;6245250;22;19934;-88
2023/12/17 15:37:02;;;;;;;;;;;;;;;;;;6244937;22;19937;-88
2023/12/17 15:39:29;;;;;;;;;;;;;;;;;;6245880;22;19904;-89
2023/12/17 15:41:58;;;;;;;;;;;;;;;;;;6244462;22;19903;-88
2023/12/17 15:44:24;;;;;;;;;;;;;;;;;;6245217;22;19903;-88
2023/12/17 15:46:50;;;;;;;;;;;;;;;;;;6245302;22;19986;-88
2023/12/17 15:49:16;;;;;;;;;;;;;;;;;;6242957;22;19938;-88
2023/12/17 15:51:42;;;;;;;;;;;;;;;;;;6245697;22;19907;-88
2023/12/17 15:54:08;;;;;;;;;;;;;;;;;;6243556;22;20264;-87
2023/12/17 15:56:34;;;;;;;;;;;;;;;;;;6272350;22;20385;-86
2023/12/17 15:59:00;;;;;;;;;;;;;;;;;;6244397;22;19911;-88
2023/12/17 16:01:26;;;;;;;;;;;;;;;;;;6245413;22;19907;-88
2023/12/17 16:03:52;;;;;;;;;;;;;;;;;;6241108;22;19907;-88
2023/12/17 16:06:18;;;;;;;;;;;;;;;;;;6245167;22;20274;-88
2023/12/17 16:08:44;;;;;;;;;;;;;;;;;;6242328;22;19907;-89
2023/12/17 16:11:10;;;;;;;;;;;;;;;;;;6242951;22;19903;-88
2023/12/17 16:13:38;;;;;;;;;;;;;;;;;;6271168;22;19914;-87
2023/12/17 16:16:04;;;;;;;;;;;;;;;;;;6239149;22;19927;-88
2023/12/17 16:18:30;;;;;;;;;;;;;;;;;;6271493;22;19903;-88
2023/12/17 16:20:56;;;;;;;;;;;;;;;;;;6245004;22;19962;-87
2023/12/17 16:23:22;;;;;;;;;;;;;;;;;;6245544;22;19907;-88
2023/12/17 16:25:48;;;;;;;;;;;;;;;;;;6243939;22;19950;-88
2023/12/17 16:28:15;;;;;;;;;;;;;;;;;;6244762;22;19938;-90
2023/12/17 16:30:41;;;;;;;;;;;;;;;;;;6248675;22;20356;-89
2023/12/17 16:33:07;;;;;;;;;;;;;;;;;;6246452;22;19907;-90
2023/12/17 16:35:33;;;;;;;;;;;;;;;;;;6246357;22;19914;-90
2023/12/17 16:37:59;;;;;;;;;;;;;;;;;;6244368;22;19984;-90